Wolf 59 — CGBP — position and weather

sailwx.info

Track history (hours):
 
Tides and Currents Weather Stations Pressure Air Temp Water Temp Dewpoint Dewpoint Depression Visibility Wind Speed Wind Dir Waves Ship Positions

Wolf 59

Last reported at 2018-Mar-09 15:56 UTC. Time now 2018-Apr-23 19:30 UTC.
Position N 48°26' W 123°26'.
Warning: this ship's position is 45 days out of date.

Length 33 m; draft 2.6 m.

Type: Military. MMSI: 316011515.

Date/timePositionNaut miles runAvg speedWind from/ knotsBaromVisibWave heightAir tempDewpointWater temp
2018-Mar-09 15:56N 48°26' W 123°26'4 8.8
2018-Mar-09 15:29N 48°22' W 123°29'1 1.8
2018-Mar-09 15:00N 48°22' W 123°30'1 2.1
2018-Mar-09 14:30N 48°22' W 123°31'4 7.2
2018-Mar-09 14:00N 48°23' W 123°26'4 7.8
2018-Mar-09 13:30N 48°23' W 123°20'3 6.5
2018-Mar-09 13:00N 48°24' W 123°15'3 6.9
2018-Mar-09 12:30N 48°27' W 123°12'5 9.8
2018-Mar-09 12:00N 48°31' W 123°13'5 9.9
2018-Mar-09 11:30N 48°36' W 123°14'510.7
2018-Mar-09 11:00N 48°41' W 123°16'510.2
2018-Mar-09 10:30N 48°46' W 123°20'510.0
2018-Mar-09 09:59N 48°51' W 123°22'610.9
2018-Mar-09 09:25N 48°55' W 123°30'511.1
2018-Mar-09 08:57N 48°59' W 123°35'710.7
2018-Mar-09 08:18N 49°04' W 123°42'410.4
2018-Mar-09 07:56N 49°06' W 123°47'4 8.6
2018-Mar-09 07:30N 49°03' W 123°44'510.0
2018-Mar-09 06:59N 48°58' W 123°43'510.0
2018-Mar-09 06:30N 48°54' W 123°38'3 5.6
2018-Mar-09 06:00N 48°53' W 123°35'5 9.0
2018-Mar-09 05:30N 48°57' W 123°37'5 9.5
2018-Mar-09 05:00N 48°55' W 123°30'5 9.2
2018-Mar-09 04:30N 48°52' W 123°25'2 4.5
2018-Mar-09 04:00N 48°50' W 123°26'4 8.8
2018-Mar-09 03:30N 48°47' W 123°21'510.4
2018-Mar-09 03:01N 48°43' W 123°26'4 8.4
2018-Mar-09 02:30N 48°40' W 123°30'2 3.1
2018-Mar-09 02:01N 48°39' W 123°27'0 0.2
2018-Mar-09 01:30N 48°39' W 123°27'5 9.2
2018-Mar-09 01:00N 48°43' W 123°32'5 9.2
2018-Mar-09 00:29N 48°47' W 123°34'5 9.7
2018-Mar-09 00:00N 48°52' W 123°36'510.3
2018-Mar-08 23:29N 48°56' W 123°41'3 7.0
2018-Mar-08 23:00N 48°58' W 123°44'0 0.4
2018-Mar-08 22:16N 48°59' W 123°45'0 1.2
2018-Mar-08 22:00N 48°58' W 123°44'2 4.0
2018-Mar-08 21:30N 48°57' W 123°42'90 3.8
2018-Mar-07 22:00N 50°12' W 124°57'5 9.7
2018-Mar-07 21:30N 50°15' W 125°03'3 6.5
2018-Mar-07 21:01N 50°19' W 125°03'4 8.6
2018-Mar-07 20:30N 50°19' W 124°56'611.8
2018-Mar-07 20:01N 50°19' W 124°47'5 9.5
2018-Mar-07 19:30N 50°18' W 124°40'510.8
2018-Mar-07 19:00N 50°12' W 124°38'4 8.1
2018-Mar-07 18:30N 50°09' W 124°42'3 5.8
2018-Mar-07 18:00N 50°07' W 124°44'510.3
2018-Mar-07 17:30N 50°04' W 124°51'4 7.6
2018-Mar-07 17:00N 50°01' W 124°48'2 4.0
2018-Mar-07 16:30N 49°59' W 124°48'1 1.1
2018-Mar-07 16:00N 49°59' W 124°47'0 0.5
2018-Mar-07 15:30N 49°59' W 124°47'0 0.2
2018-Mar-07 15:00N 49°58' W 124°46'0 0.8
2018-Mar-07 14:30N 49°58' W 124°47'4 8.0
2018-Mar-07 14:00N 49°60' W 124°52'4 8.0
2018-Mar-07 13:30N 49°59' W 124°58'5 9.4
2018-Mar-07 13:00N 49°55' W 124°57'5 9.5
2018-Mar-07 12:30N 49°51' W 124°53'510.2
2018-Mar-07 12:00N 49°48' W 124°46'611.7
2018-Mar-07 11:30N 49°43' W 124°42'611.2
2018-Mar-07 11:00N 49°38' W 124°37'6 9.9
2018-Mar-07 10:26N 49°34' W 124°31'511.5
2018-Mar-07 09:59N 49°29' W 124°30'2210.6
2018-Mar-07 07:55N 49°23' W 123°58'4 9.1
2018-Mar-07 07:30N 49°22' W 123°52'5 9.6
2018-Mar-07 07:00N 49°22' W 123°45'5 9.6
2018-Mar-07 06:30N 49°20' W 123°39'510.6
2018-Mar-07 06:00N 49°16' W 123°33'5 9.8
2018-Mar-07 05:30N 49°12' W 123°29'510.3
2018-Mar-07 05:00N 49°07' W 123°29'510.9
2018-Mar-07 04:30N 49°01' W 123°27'510.4
2018-Mar-07 04:00N 48°58' W 123°21'3 5.7
2018-Mar-07 03:30N 48°57' W 123°17'2 4.7
2018-Mar-07 03:00N 48°55' W 123°14'5 9.8
2018-Mar-07 02:29N 48°52' W 123°09'5 8.3
2018-Mar-07 01:53N 48°51' W 123°01'4 8.6
2018-Mar-07 01:28N 48°48' W 122°60'510.5
2018-Mar-07 01:00N 48°45' W 123°06'612.1
2018-Mar-07 00:30N 48°42' W 123°14'510.9
2018-Mar-07 00:00N 48°37' W 123°13'611.0
2018-Mar-06 23:30N 48°31' W 123°11'510.5
2018-Mar-06 23:00N 48°26' W 123°10'4 7.5
2018-Mar-06 22:30N 48°23' W 123°12'6 2.6
2018-Mar-06 20:15N 48°18' W 123°17'7 1.6
2018-Mar-06 15:55N 48°23' W 123°24'4 9.9
2018-Mar-06 15:30N 48°21' W 123°18'3 6.4
2018-Mar-06 15:01N 48°21' W 123°13'2 3.5
2018-Mar-06 14:30N 48°23' W 123°12'1 1.4
2018-Mar-06 14:01N 48°22' W 123°12'5 9.3
2018-Mar-06 13:31N 48°27' W 123°12'510.5
2018-Mar-06 13:01N 48°32' W 123°13'5 9.7
2018-Mar-06 12:31N 48°37' W 123°15'5 9.6
2018-Mar-06 12:01N 48°41' W 123°16'5 9.6
2018-Mar-06 11:31N 48°44' W 123°10'510.4
2018-Mar-06 11:00N 48°46' W 123°03'4 7.1
2018-Mar-06 10:28N 48°50' W 123°01'510.7
2018-Mar-06 10:01N 48°53' W 123°08'510.7
2018-Mar-06 09:30N 48°56' W 123°14'611.0
2018-Mar-06 08:59N 48°59' W 123°22'510.5
2018-Mar-06 08:30N 49°03' W 123°27'5 9.8
2018-Mar-06 08:00N 49°07' W 123°31'5 9.4
2018-Mar-06 07:30N 49°10' W 123°37'5 9.8
2018-Mar-06 07:00N 49°14' W 123°41'3 6.7
2018-Mar-06 06:29N 49°13' W 123°36'5 9.6
2018-Mar-06 06:00N 49°10' W 123°30'5 9.7
2018-Mar-06 05:30N 49°07' W 123°25'5 9.0
2018-Mar-06 04:59N 49°04' W 123°20'4 8.8
2018-Mar-06 04:30N 49°01' W 123°15'5 9.1
2018-Mar-06 04:00N 48°58' W 123°10'5 9.5
2018-Mar-06 03:27N 48°54' W 123°04'6 8.9
2018-Mar-06 02:49N 48°50' W 122°57'3 8.3
2018-Mar-06 02:25N 48°48' W 122°60'4 9.9
2018-Mar-06 02:00N 48°45' W 123°04'5 9.2
2018-Mar-06 01:29N 48°43' W 123°11'4 7.2
2018-Mar-06 01:00N 48°40' W 123°15'4 8.6
2018-Mar-06 00:29N 48°36' W 123°13'4 8.8
2018-Mar-06 00:01N 48°32' W 123°11'5 9.1
2018-Mar-05 23:31N 48°28' W 123°10'510.5
2018-Mar-05 23:01N 48°23' W 123°14'5 9.2
2018-Mar-05 22:30N 48°20' W 123°19'1 0.8
2018-Mar-05 21:48N 48°19' W 123°18'0 0.5
2018-Mar-05 21:30N 48°19' W 123°18'0 0.9
2018-Mar-05 21:00N 48°20' W 123°19'  
2018-Mar-02 15:14N 48°18' W 123°21'2 9.1
2018-Mar-02 15:00N 48°20' W 123°20'3 6.5
2018-Mar-02 14:31N 48°24' W 123°21'5 9.3
2018-Mar-02 14:00N 48°24' W 123°14'4 8.9
2018-Mar-02 13:30N 48°29' W 123°12'510.5
2018-Mar-02 12:59N 48°34' W 123°13'5 9.3
2018-Mar-02 12:30N 48°38' W 123°15'4 8.6
2018-Mar-02 12:00N 48°43' W 123°17'4 8.9
2018-Mar-02 11:30N 48°46' W 123°20'4 8.6
2018-Mar-02 11:01N 48°50' W 123°25'3 5.4
2018-Mar-02 10:31N 48°50' W 123°21'5 9.4
2018-Mar-02 10:00N 48°45' W 123°21'3 6.7
2018-Mar-02 09:30N 48°42' W 123°22'4 8.5
2018-Mar-02 08:59N 48°42' W 123°16'5 9.6
2018-Mar-02 08:30N 48°44' W 123°09'5 9.0
2018-Mar-02 07:59N 48°46' W 123°03'510.5
2018-Mar-02 07:30N 48°43' W 123°09'5 9.3
2018-Mar-02 07:00N 48°40' W 123°15'5 9.5
2018-Mar-02 06:30N 48°36' W 123°13'3 5.8
2018-Mar-02 06:00N 48°33' W 123°12'4 8.6
2018-Mar-02 05:30N 48°29' W 123°09'4 8.3
2018-Mar-02 05:00N 48°25' W 123°10'2 4.1
2018-Mar-02 04:30N 48°23' W 123°11'4 8.5
2018-Mar-02 04:00N 48°27' W 123°12'510.8
2018-Mar-02 03:31N 48°32' W 123°13'611.1
2018-Mar-02 03:00N 48°38' W 123°15'5 9.8
2018-Mar-02 02:30N 48°42' W 123°19'4 7.6
2018-Mar-02 02:00N 48°43' W 123°24'4 8.0
2018-Mar-02 01:30N 48°45' W 123°19'4 8.5
2018-Mar-02 01:00N 48°42' W 123°15'5 9.2
2018-Mar-02 00:30N 48°37' W 123°13'5 9.6
2018-Mar-02 00:00N 48°33' W 123°12'612.8
2018-Mar-01 23:30N 48°26' W 123°09'510.7
2018-Mar-01 23:01N 48°22' W 123°14'5 7.9
2018-Mar-01 22:25N 48°19' W 123°20'0 1.0
2018-Mar-01 21:58N 48°20' W 123°20'1 1.1
2018-Mar-01 21:27N 48°20' W 123°20'1 1.1
2018-Mar-01 20:59N 48°21' W 123°21'1 0.8
2018-Mar-01 19:55N 48°20' W 123°20'1 1.2
2018-Mar-01 19:29N 48°20' W 123°20'1 1.6
2018-Mar-01 18:55N 48°19' W 123°18'2 1.7
2018-Mar-01 17:27N 48°19' W 123°15'715.2
2018-Mar-01 17:00N 48°26' W 123°12'816.2
2018-Mar-01 16:30N 48°34' W 123°13'816.5
2018-Mar-01 16:00N 48°42' W 123°17'612.9
2018-Mar-01 15:30N 48°48' W 123°21'611.1
2018-Mar-01 15:00N 48°52' W 123°26'711.5
2018-Mar-01 14:26N 48°56' W 123°34'3 6.9
2018-Mar-01 14:00N 48°55' W 123°38'711.7
2018-Mar-01 13:26N 48°59' W 123°46'1 0.6
2018-Mar-01 11:44N 48°59' W 123°47'0 0.0
2018-Mar-01 11:28N 48°59' W 123°47'0 0.0
2018-Mar-01 07:14N 48°59' W 123°47'0 0.0
2018-Mar-01 06:59N 48°59' W 123°47'0 0.0
2018-Mar-01 03:32N 48°59' W 123°47'0 0.0
2018-Mar-01 01:23N 48°59' W 123°47'0 0.0
2018-Mar-01 00:03N 48°59' W 123°47'0 0.1
2018-Feb-28 23:34N 48°59' W 123°47'0 0.6
2018-Feb-28 23:30N 48°59' W 123°47'4 8.2
2018-Feb-28 22:58N 48°57' W 123°41'2 3.9
2018-Feb-28 22:28N 48°58' W 123°44'510.0
2018-Feb-28 22:00N 48°55' W 123°39'4 5.1
2018-Feb-28 21:11N 48°58' W 123°43'2 8.8
2018-Feb-28 20:57N 48°56' W 123°41'4 9.1
2018-Feb-28 20:30N 48°53' W 123°36'3 6.9
2018-Feb-28 20:00N 48°55' W 123°40'4 2.8
2018-Feb-28 18:25N 48°58' W 123°45'3 7.1
2018-Feb-28 18:00N 48°57' W 123°41'4 8.2
2018-Feb-28 17:29N 48°54' W 123°38'4 8.0
2018-Feb-28 16:59N 48°57' W 123°42'1 1.5
2018-Feb-28 16:30N 48°56' W 123°41'3 6.2
2018-Feb-28 16:00N 48°55' W 123°37'3 4.9
2018-Feb-28 15:22N 48°55' W 123°32'3 8.7
2018-Feb-28 15:00N 48°54' W 123°28'5 9.4
2018-Feb-28 14:30N 48°51' W 123°22'4 7.8
2018-Feb-28 14:00N 48°47' W 123°20'4 8.2
2018-Feb-28 13:30N 48°44' W 123°16'4 9.0
2018-Feb-28 13:00N 48°44' W 123°09'7 9.0
2018-Feb-28 12:12N 48°49' W 123°01'2 8.5
2018-Feb-28 11:59N 48°51' W 123°03'5 9.6
2018-Feb-28 11:30N 48°54' W 123°08'510.7
2018-Feb-28 11:00N 48°57' W 123°14'510.2
2018-Feb-28 10:30N 49°01' W 123°19'510.1
2018-Feb-28 10:00N 49°04' W 123°25'5 9.5
2018-Feb-28 09:30N 49°08' W 123°30'610.0
2018-Feb-28 08:57N 49°12' W 123°35'5 9.9
2018-Feb-28 08:26N 49°16' W 123°40'5 9.6
2018-Feb-28 07:54N 49°20' W 123°45'6 8.9
2018-Feb-28 07:15N 49°23' W 123°53'4 9.1
2018-Feb-28 06:48N 49°25' W 123°59'3 9.0
2018-Feb-28 06:29N 49°26' W 124°02'5 9.7
2018-Feb-28 05:59N 49°31' W 124°06'4 9.4
2018-Feb-28 05:30N 49°35' W 124°09'5 9.8
2018-Feb-28 05:00N 49°38' W 124°14'510.0
2018-Feb-28 04:30N 49°42' W 124°19'2 4.8
2018-Feb-28 03:59N 49°45' W 124°20'510.2
2018-Feb-28 03:30N 49°41' W 124°15'510.0
2018-Feb-28 02:59N 49°37' W 124°10'5 9.8
2018-Feb-28 02:30N 49°33' W 124°05'10 8.4
2018-Feb-28 01:20N 49°23' W 124°05'4 9.4
2018-Feb-28 00:53N 49°22' W 124°11'24 2.9
2018-Feb-27 16:24N 49°45' W 124°25'4 9.5
2018-Feb-27 16:00N 49°46' W 124°30'  
Track history (hours):
 
Tides and Currents Weather Stations Pressure Air Temp Water Temp Dewpoint Dewpoint Depression Visibility Wind Speed Wind Dir Waves Ship Positions

Wolf 59

Last reported at 2018-Mar-09 15:56 UTC. Time now 2018-Apr-23 19:30 UTC.
Position N 48°26' W 123°26'.
Warning: this ship's position is 45 days out of date.

Length 33 m; draft 2.6 m.

Type: Military. MMSI: 316011515.

Date/timePositionNaut miles runAvg speedWind from/ knotsBaromVisibWave heightAir tempDewpointWater temp
2018-Mar-09 15:56N 48°26' W 123°26'4 8.8
2018-Mar-09 15:29N 48°22' W 123°29'1 1.8
2018-Mar-09 15:00N 48°22' W 123°30'1 2.1
2018-Mar-09 14:30N 48°22' W 123°31'4 7.2
2018-Mar-09 14:00N 48°23' W 123°26'4 7.8
2018-Mar-09 13:30N 48°23' W 123°20'3 6.5
2018-Mar-09 13:00N 48°24' W 123°15'3 6.9
2018-Mar-09 12:30N 48°27' W 123°12'5 9.8
2018-Mar-09 12:00N 48°31' W 123°13'5 9.9
2018-Mar-09 11:30N 48°36' W 123°14'510.7
2018-Mar-09 11:00N 48°41' W 123°16'510.2
2018-Mar-09 10:30N 48°46' W 123°20'510.0
2018-Mar-09 09:59N 48°51' W 123°22'610.9
2018-Mar-09 09:25N 48°55' W 123°30'511.1
2018-Mar-09 08:57N 48°59' W 123°35'710.7
2018-Mar-09 08:18N 49°04' W 123°42'410.4
2018-Mar-09 07:56N 49°06' W 123°47'4 8.6
2018-Mar-09 07:30N 49°03' W 123°44'510.0
2018-Mar-09 06:59N 48°58' W 123°43'510.0
2018-Mar-09 06:30N 48°54' W 123°38'3 5.6
2018-Mar-09 06:00N 48°53' W 123°35'5 9.0
2018-Mar-09 05:30N 48°57' W 123°37'5 9.5
2018-Mar-09 05:00N 48°55' W 123°30'5 9.2
2018-Mar-09 04:30N 48°52' W 123°25'2 4.5
2018-Mar-09 04:00N 48°50' W 123°26'4 8.8
2018-Mar-09 03:30N 48°47' W 123°21'510.4
2018-Mar-09 03:01N 48°43' W 123°26'4 8.4
2018-Mar-09 02:30N 48°40' W 123°30'2 3.1
2018-Mar-09 02:01N 48°39' W 123°27'0 0.2
2018-Mar-09 01:30N 48°39' W 123°27'5 9.2
2018-Mar-09 01:00N 48°43' W 123°32'5 9.2
2018-Mar-09 00:29N 48°47' W 123°34'5 9.7
2018-Mar-09 00:00N 48°52' W 123°36'510.3
2018-Mar-08 23:29N 48°56' W 123°41'3 7.0
2018-Mar-08 23:00N 48°58' W 123°44'0 0.4
2018-Mar-08 22:16N 48°59' W 123°45'0 1.2
2018-Mar-08 22:00N 48°58' W 123°44'2 4.0
2018-Mar-08 21:30N 48°57' W 123°42'90 3.8
2018-Mar-07 22:00N 50°12' W 124°57'5 9.7
2018-Mar-07 21:30N 50°15' W 125°03'3 6.5
2018-Mar-07 21:01N 50°19' W 125°03'4 8.6
2018-Mar-07 20:30N 50°19' W 124°56'611.8
2018-Mar-07 20:01N 50°19' W 124°47'5 9.5
2018-Mar-07 19:30N 50°18' W 124°40'510.8
2018-Mar-07 19:00N 50°12' W 124°38'4 8.1
2018-Mar-07 18:30N 50°09' W 124°42'3 5.8
2018-Mar-07 18:00N 50°07' W 124°44'510.3
2018-Mar-07 17:30N 50°04' W 124°51'4 7.6
2018-Mar-07 17:00N 50°01' W 124°48'2 4.0
2018-Mar-07 16:30N 49°59' W 124°48'1 1.1
2018-Mar-07 16:00N 49°59' W 124°47'0 0.5
2018-Mar-07 15:30N 49°59' W 124°47'0 0.2
2018-Mar-07 15:00N 49°58' W 124°46'0 0.8
2018-Mar-07 14:30N 49°58' W 124°47'4 8.0
2018-Mar-07 14:00N 49°60' W 124°52'4 8.0
2018-Mar-07 13:30N 49°59' W 124°58'5 9.4
2018-Mar-07 13:00N 49°55' W 124°57'5 9.5
2018-Mar-07 12:30N 49°51' W 124°53'510.2
2018-Mar-07 12:00N 49°48' W 124°46'611.7
2018-Mar-07 11:30N 49°43' W 124°42'611.2
2018-Mar-07 11:00N 49°38' W 124°37'6 9.9
2018-Mar-07 10:26N 49°34' W 124°31'511.5
2018-Mar-07 09:59N 49°29' W 124°30'2210.6
2018-Mar-07 07:55N 49°23' W 123°58'4 9.1
2018-Mar-07 07:30N 49°22' W 123°52'5 9.6
2018-Mar-07 07:00N 49°22' W 123°45'5 9.6
2018-Mar-07 06:30N 49°20' W 123°39'510.6
2018-Mar-07 06:00N 49°16' W 123°33'5 9.8
2018-Mar-07 05:30N 49°12' W 123°29'510.3
2018-Mar-07 05:00N 49°07' W 123°29'510.9
2018-Mar-07 04:30N 49°01' W 123°27'510.4
2018-Mar-07 04:00N 48°58' W 123°21'3 5.7
2018-Mar-07 03:30N 48°57' W 123°17'2 4.7
2018-Mar-07 03:00N 48°55' W 123°14'5 9.8
2018-Mar-07 02:29N 48°52' W 123°09'5 8.3
2018-Mar-07 01:53N 48°51' W 123°01'4 8.6
2018-Mar-07 01:28N 48°48' W 122°60'510.5
2018-Mar-07 01:00N 48°45' W 123°06'612.1
2018-Mar-07 00:30N 48°42' W 123°14'510.9
2018-Mar-07 00:00N 48°37' W 123°13'611.0
2018-Mar-06 23:30N 48°31' W 123°11'510.5
2018-Mar-06 23:00N 48°26' W 123°10'4 7.5
2018-Mar-06 22:30N 48°23' W 123°12'6 2.6
2018-Mar-06 20:15N 48°18' W 123°17'7 1.6
2018-Mar-06 15:55N 48°23' W 123°24'4 9.9
2018-Mar-06 15:30N 48°21' W 123°18'3 6.4
2018-Mar-06 15:01N 48°21' W 123°13'2 3.5
2018-Mar-06 14:30N 48°23' W 123°12'1 1.4
2018-Mar-06 14:01N 48°22' W 123°12'5 9.3
2018-Mar-06 13:31N 48°27' W 123°12'510.5
2018-Mar-06 13:01N 48°32' W 123°13'5 9.7
2018-Mar-06 12:31N 48°37' W 123°15'5 9.6
2018-Mar-06 12:01N 48°41' W 123°16'5 9.6
2018-Mar-06 11:31N 48°44' W 123°10'510.4
2018-Mar-06 11:00N 48°46' W 123°03'4 7.1
2018-Mar-06 10:28N 48°50' W 123°01'510.7
2018-Mar-06 10:01N 48°53' W 123°08'510.7
2018-Mar-06 09:30N 48°56' W 123°14'611.0
2018-Mar-06 08:59N 48°59' W 123°22'510.5
2018-Mar-06 08:30N 49°03' W 123°27'5 9.8
2018-Mar-06 08:00N 49°07' W 123°31'5 9.4
2018-Mar-06 07:30N 49°10' W 123°37'5 9.8
2018-Mar-06 07:00N 49°14' W 123°41'3 6.7
2018-Mar-06 06:29N 49°13' W 123°36'5 9.6
2018-Mar-06 06:00N 49°10' W 123°30'5 9.7
2018-Mar-06 05:30N 49°07' W 123°25'5 9.0
2018-Mar-06 04:59N 49°04' W 123°20'4 8.8
2018-Mar-06 04:30N 49°01' W 123°15'5 9.1
2018-Mar-06 04:00N 48°58' W 123°10'5 9.5
2018-Mar-06 03:27N 48°54' W 123°04'6 8.9
2018-Mar-06 02:49N 48°50' W 122°57'3 8.3
2018-Mar-06 02:25N 48°48' W 122°60'4 9.9
2018-Mar-06 02:00N 48°45' W 123°04'5 9.2
2018-Mar-06 01:29N 48°43' W 123°11'4 7.2
2018-Mar-06 01:00N 48°40' W 123°15'4 8.6
2018-Mar-06 00:29N 48°36' W 123°13'4 8.8
2018-Mar-06 00:01N 48°32' W 123°11'5 9.1
2018-Mar-05 23:31N 48°28' W 123°10'510.5
2018-Mar-05 23:01N 48°23' W 123°14'5 9.2
2018-Mar-05 22:30N 48°20' W 123°19'1 0.8
2018-Mar-05 21:48N 48°19' W 123°18'0 0.5
2018-Mar-05 21:30N 48°19' W 123°18'0 0.9
2018-Mar-05 21:00N 48°20' W 123°19'  
2018-Mar-02 15:14N 48°18' W 123°21'2 9.1
2018-Mar-02 15:00N 48°20' W 123°20'3 6.5
2018-Mar-02 14:31N 48°24' W 123°21'5 9.3
2018-Mar-02 14:00N 48°24' W 123°14'4 8.9
2018-Mar-02 13:30N 48°29' W 123°12'510.5
2018-Mar-02 12:59N 48°34' W 123°13'5 9.3
2018-Mar-02 12:30N 48°38' W 123°15'4 8.6
2018-Mar-02 12:00N 48°43' W 123°17'4 8.9
2018-Mar-02 11:30N 48°46' W 123°20'4 8.6
2018-Mar-02 11:01N 48°50' W 123°25'3 5.4
2018-Mar-02 10:31N 48°50' W 123°21'5 9.4
2018-Mar-02 10:00N 48°45' W 123°21'3 6.7
2018-Mar-02 09:30N 48°42' W 123°22'4 8.5
2018-Mar-02 08:59N 48°42' W 123°16'5 9.6
2018-Mar-02 08:30N 48°44' W 123°09'5 9.0
2018-Mar-02 07:59N 48°46' W 123°03'510.5
2018-Mar-02 07:30N 48°43' W 123°09'5 9.3
2018-Mar-02 07:00N 48°40' W 123°15'5 9.5
2018-Mar-02 06:30N 48°36' W 123°13'3 5.8
2018-Mar-02 06:00N 48°33' W 123°12'4 8.6
2018-Mar-02 05:30N 48°29' W 123°09'4 8.3
2018-Mar-02 05:00N 48°25' W 123°10'2 4.1
2018-Mar-02 04:30N 48°23' W 123°11'4 8.5
2018-Mar-02 04:00N 48°27' W 123°12'510.8
2018-Mar-02 03:31N 48°32' W 123°13'611.1
2018-Mar-02 03:00N 48°38' W 123°15'5 9.8
2018-Mar-02 02:30N 48°42' W 123°19'4 7.6
2018-Mar-02 02:00N 48°43' W 123°24'4 8.0
2018-Mar-02 01:30N 48°45' W 123°19'4 8.5
2018-Mar-02 01:00N 48°42' W 123°15'5 9.2
2018-Mar-02 00:30N 48°37' W 123°13'5 9.6
2018-Mar-02 00:00N 48°33' W 123°12'612.8
2018-Mar-01 23:30N 48°26' W 123°09'510.7
2018-Mar-01 23:01N 48°22' W 123°14'5 7.9
2018-Mar-01 22:25N 48°19' W 123°20'0 1.0
2018-Mar-01 21:58N 48°20' W 123°20'1 1.1
2018-Mar-01 21:27N 48°20' W 123°20'1 1.1
2018-Mar-01 20:59N 48°21' W 123°21'1 0.8
2018-Mar-01 19:55N 48°20' W 123°20'1 1.2
2018-Mar-01 19:29N 48°20' W 123°20'1 1.6
2018-Mar-01 18:55N 48°19' W 123°18'2 1.7
2018-Mar-01 17:27N 48°19' W 123°15'715.2
2018-Mar-01 17:00N 48°26' W 123°12'816.2
2018-Mar-01 16:30N 48°34' W 123°13'816.5
2018-Mar-01 16:00N 48°42' W 123°17'612.9
2018-Mar-01 15:30N 48°48' W 123°21'611.1
2018-Mar-01 15:00N 48°52' W 123°26'711.5
2018-Mar-01 14:26N 48°56' W 123°34'3 6.9
2018-Mar-01 14:00N 48°55' W 123°38'711.7
2018-Mar-01 13:26N 48°59' W 123°46'1 0.6
2018-Mar-01 11:44N 48°59' W 123°47'0 0.0
2018-Mar-01 11:28N 48°59' W 123°47'0 0.0
2018-Mar-01 07:14N 48°59' W 123°47'0 0.0
2018-Mar-01 06:59N 48°59' W 123°47'0 0.0
2018-Mar-01 03:32N 48°59' W 123°47'0 0.0
2018-Mar-01 01:23N 48°59' W 123°47'0 0.0
2018-Mar-01 00:03N 48°59' W 123°47'0 0.1
2018-Feb-28 23:34N 48°59' W 123°47'0 0.6
2018-Feb-28 23:30N 48°59' W 123°47'4 8.2
2018-Feb-28 22:58N 48°57' W 123°41'2 3.9
2018-Feb-28 22:28N 48°58' W 123°44'510.0
2018-Feb-28 22:00N 48°55' W 123°39'4 5.1
2018-Feb-28 21:11N 48°58' W 123°43'2 8.8
2018-Feb-28 20:57N 48°56' W 123°41'4 9.1
2018-Feb-28 20:30N 48°53' W 123°36'3 6.9
2018-Feb-28 20:00N 48°55' W 123°40'4 2.8
2018-Feb-28 18:25N 48°58' W 123°45'3 7.1
2018-Feb-28 18:00N 48°57' W 123°41'4 8.2
2018-Feb-28 17:29N 48°54' W 123°38'4 8.0
2018-Feb-28 16:59N 48°57' W 123°42'1 1.5
2018-Feb-28 16:30N 48°56' W 123°41'3 6.2
2018-Feb-28 16:00N 48°55' W 123°37'3 4.9
2018-Feb-28 15:22N 48°55' W 123°32'3 8.7
2018-Feb-28 15:00N 48°54' W 123°28'5 9.4
2018-Feb-28 14:30N 48°51' W 123°22'4 7.8
2018-Feb-28 14:00N 48°47' W 123°20'4 8.2
2018-Feb-28 13:30N 48°44' W 123°16'4 9.0
2018-Feb-28 13:00N 48°44' W 123°09'7 9.0
2018-Feb-28 12:12N 48°49' W 123°01'2 8.5
2018-Feb-28 11:59N 48°51' W 123°03'5 9.6
2018-Feb-28 11:30N 48°54' W 123°08'510.7
2018-Feb-28 11:00N 48°57' W 123°14'510.2
2018-Feb-28 10:30N 49°01' W 123°19'510.1
2018-Feb-28 10:00N 49°04' W 123°25'5 9.5
2018-Feb-28 09:30N 49°08' W 123°30'610.0
2018-Feb-28 08:57N 49°12' W 123°35'5 9.9
2018-Feb-28 08:26N 49°16' W 123°40'5 9.6
2018-Feb-28 07:54N 49°20' W 123°45'6 8.9
2018-Feb-28 07:15N 49°23' W 123°53'4 9.1
2018-Feb-28 06:48N 49°25' W 123°59'3 9.0
2018-Feb-28 06:29N 49°26' W 124°02'5 9.7
2018-Feb-28 05:59N 49°31' W 124°06'4 9.4
2018-Feb-28 05:30N 49°35' W 124°09'5 9.8
2018-Feb-28 05:00N 49°38' W 124°14'510.0
2018-Feb-28 04:30N 49°42' W 124°19'2 4.8
2018-Feb-28 03:59N 49°45' W 124°20'510.2
2018-Feb-28 03:30N 49°41' W 124°15'510.0
2018-Feb-28 02:59N 49°37' W 124°10'5 9.8
2018-Feb-28 02:30N 49°33' W 124°05'10 8.4
2018-Feb-28 01:20N 49°23' W 124°05'4 9.4
2018-Feb-28 00:53N 49°22' W 124°11'24 2.9
2018-Feb-27 16:24N 49°45' W 124°25'4 9.5
2018-Feb-27 16:00N 49°46' W 124°30'  

Dump ship's entire track history